Not for real navigation | The accuracy of this data is not assured | See disclaimer for more information
ICAO NAME COUNTRY WIND Kt GUST Kt VIS TEMP/DEW BARO
SCRM 14 0 9999 2/2 28.76
SCRM 310500Z 35014KT 9999 BKN007 OVC010 02/02 Q0974 NOSIG
ENAN Andoya Norway 24 36 4500 3/1 29.09
ENAN 310520Z 25024G36KT 220V280 4500 -DZ OVC019 03/01 Q0985
ENTC Tromso / Langnes Norway 20 0 1600 -2/-3 29.12
ENTC 310520Z 19020KT 1600 R36/P2000N R18/1900N -SHSN VV010 M02/M03 Q0986 TEMPO 1000 SHSN VV006 RMK WIND 2600FT /////KT
ENDU Bardufoss Norway 10 0 1000 -3/-3 29.15
ENDU 310520Z AUTO 11010KT 1000 R10/1500U R28/1900D -SN VV009 M03/M03 Q0987 RMK WIND 1100FT 18014KT WIND 2200FT 19021KT
UERP Polyarny Russia 3 0 9999 -6/-10 29.15
UERP 310500Z 27003KT 9999 SCT023CB BKN100 M06/M10 Q0987 R35/490139 NOSIG RMK QFE696

Show more

Close Menu